createdAt,value
2023-10-06T04:40:43.939Z,101089.59
2023-10-06T04:43:46.860Z,101089.59
2023-10-06T04:46:51.630Z,101092.84
2023-10-06T04:49:54.543Z,101093.75
2023-10-06T04:52:59.785Z,101092.97
2023-10-06T04:56:05.512Z,101100.88
2023-10-06T04:59:08.315Z,101098.31
2023-10-06T05:02:12.792Z,101098.31
2023-10-06T05:05:16.242Z,101103.53
2023-10-06T05:08:18.855Z,101110.47
2023-10-06T05:11:22.286Z,101113.09
2023-10-06T05:14:25.988Z,101107.87
2023-10-06T05:17:28.603Z,101113.97
2023-10-06T05:20:35.046Z,101115.69
2023-10-06T05:23:37.637Z,101117.44
2023-10-06T05:26:40.199Z,101130.47
2023-10-06T05:29:43.199Z,101134.81
2023-10-06T05:32:45.826Z,101132.19
2023-10-06T05:35:49.555Z,101146.09
2023-10-06T05:38:52.074Z,101147.00
2023-10-06T05:41:54.751Z,101152.16
2023-10-06T05:44:57.239Z,101154.81
2023-10-06T05:48:00.302Z,101156.53
2023-10-06T05:51:16.725Z,101166.09
2023-10-06T05:54:25.509Z,101166.97
2023-10-06T05:57:28.225Z,101173.06
2023-10-06T06:00:32.133Z,101186.06
2023-10-06T06:03:34.941Z,101187.78
2023-10-06T06:06:38.916Z,101192.97
2023-10-06T06:09:42.447Z,101205.12
2023-10-06T06:12:44.920Z,101199.87
2023-10-06T06:15:47.641Z,101209.47
2023-10-06T06:18:50.288Z,101204.25
2023-10-06T06:21:55.161Z,101219.00
2023-10-06T06:24:57.896Z,101212.03
2023-10-06T06:28:00.685Z,101212.87
2023-10-06T06:31:06.461Z,101215.41
2023-10-06T06:34:10.438Z,101217.09
2023-10-06T06:37:14.366Z,101212.66
2023-10-06T06:40:17.078Z,101211.78
2023-10-06T06:43:21.448Z,101223.00
2023-10-06T06:46:24.128Z,101222.09
2023-10-06T06:49:28.107Z,101226.34
2023-10-06T06:52:30.660Z,101222.44
2023-10-06T06:55:33.665Z,101236.50
2023-10-06T06:58:36.543Z,101236.53
2023-10-06T07:01:40.355Z,101232.25
2023-10-06T07:04:42.936Z,101237.44
2023-10-06T07:07:46.408Z,101241.81
2023-10-06T07:10:54.480Z,101234.91
2023-10-06T07:14:01.353Z,101239.28
2023-10-06T07:17:04.069Z,101240.97
2023-10-06T07:20:10.590Z,101244.47
2023-10-06T07:23:13.229Z,101239.22
2023-10-06T07:26:15.909Z,101246.25
2023-10-06T07:29:18.438Z,101244.38
2023-10-06T07:32:23.260Z,101244.22
2023-10-06T07:35:38.549Z,101256.12
2023-10-06T07:38:42.576Z,101252.31
2023-10-06T07:41:45.192Z,101256.19
2023-10-06T07:44:48.936Z,101262.94
2023-10-06T07:47:51.703Z,101262.47
2023-10-06T07:50:55.338Z,101262.78
2023-10-06T07:54:00.499Z,101271.37
2023-10-06T07:57:02.884Z,101266.53
2023-10-06T08:00:08.593Z,101273.28
2023-10-06T08:03:12.520Z,101280.91
2023-10-06T08:06:15.610Z,101279.72
2023-10-06T08:09:18.646Z,101275.62
2023-10-06T08:12:21.183Z,101280.03
2023-10-06T08:15:23.990Z,101281.09
2023-10-06T08:18:29.495Z,101286.19
2023-10-06T08:21:32.119Z,101288.13
2023-10-06T08:24:34.649Z,101276.53
2023-10-06T08:27:37.337Z,101280.06
2023-10-06T08:30:40.044Z,101276.28
2023-10-06T08:33:43.096Z,101279.41
2023-10-06T08:36:46.048Z,101274.25
2023-10-06T08:39:49.250Z,101280.38
2023-10-06T08:42:55.443Z,101277.63
2023-10-06T08:46:01.463Z,101278.50
2023-10-06T08:49:04.370Z,101288.13
2023-10-06T08:52:09.758Z,101284.72
2023-10-06T08:55:16.167Z,101290.72
2023-10-06T08:58:19.117Z,101287.91
2023-10-06T09:01:22.301Z,101287.59
2023-10-06T09:04:24.799Z,101284.53
2023-10-06T09:07:27.419Z,101287.84
2023-10-06T09:10:32.236Z,101289.47
2023-10-06T09:13:35.140Z,101283.31
2023-10-06T09:16:52.832Z,101283.34
2023-10-06T09:19:56.054Z,101292.16
2023-10-06T09:23:00.203Z,101283.25
2023-10-06T09:26:03.476Z,101294.69
2023-10-06T09:29:06.080Z,101297.28
2023-10-06T09:32:22.283Z,101294.47
2023-10-06T09:35:26.822Z,101288.34
2023-10-06T09:38:30.302Z,101288.22
2023-10-06T09:41:35.984Z,101283.38
2023-10-06T09:44:38.505Z,101291.28
2023-10-06T09:47:41.751Z,101285.25
2023-10-06T09:50:47.609Z,101273.47
2023-10-06T09:53:50.881Z,101274.13
2023-10-06T09:56:56.954Z,101270.63
2023-10-06T10:00:01.310Z,101267.56
2023-10-06T10:03:06.462Z,101267.00
2023-10-06T10:06:09.229Z,101273.41
2023-10-06T10:09:18.809Z,101266.56
2023-10-06T10:12:48.948Z,101271.72
2023-10-06T10:16:40.691Z,101264.34
2023-10-06T10:19:44.792Z,101245.50
2023-10-06T10:22:47.343Z,101245.88
2023-10-06T10:25:49.865Z,101232.97
2023-10-06T10:29:14.381Z,101238.00
2023-10-06T10:32:20.349Z,101232.66
2023-10-06T10:35:23.130Z,101223.19
2023-10-06T10:38:27.874Z,101226.75
2023-10-06T10:41:32.294Z,101212.75
2023-10-06T10:44:36.888Z,101210.34
2023-10-06T10:47:39.518Z,101216.53
2023-10-06T10:50:54.244Z,101216.66
2023-10-06T10:53:56.843Z,101207.13
2023-10-06T10:57:11.100Z,101204.47
2023-10-06T11:00:14.612Z,101206.66
2023-10-06T11:03:17.435Z,101207.84
2023-10-06T11:06:20.027Z,101198.97
2023-10-06T11:09:38.423Z,101190.75
2023-10-06T11:12:41.355Z,101186.41
2023-10-06T11:15:44.244Z,101197.56
2023-10-06T11:18:47.033Z,101188.66
2023-10-06T11:21:50.508Z,101181.47
2023-10-06T11:24:54.047Z,101188.44
2023-10-06T11:28:10.857Z,101184.19
2023-10-06T11:31:14.034Z,101181.25
2023-10-06T11:34:17.410Z,101179.09
2023-10-06T11:37:25.570Z,101180.91
2023-10-06T11:40:29.150Z,101179.56
2023-10-06T11:43:32.231Z,101181.47
2023-10-06T11:46:51.340Z,101182.13
2023-10-06T11:49:56.824Z,101182.66
2023-10-06T11:53:03.856Z,101181.41
2023-10-06T11:56:11.563Z,101175.75
2023-10-06T11:59:24.664Z,101168.19
2023-10-06T12:02:27.303Z,101168.56
2023-10-06T12:05:31.402Z,101167.28
2023-10-06T12:08:34.011Z,101157.69
2023-10-06T12:11:37.259Z,101160.56
2023-10-06T12:14:46.818Z,101151.13
2023-10-06T12:17:51.876Z,101132.59
2023-10-06T12:20:55.018Z,101116.84
2023-10-06T12:23:57.654Z,101124.47
2023-10-06T12:27:00.277Z,101119.59
2023-10-06T12:30:08.558Z,101107.44
2023-10-06T12:33:12.263Z,101108.91
2023-10-06T12:36:16.354Z,101110.81
2023-10-06T12:39:32.196Z,101107.03
2023-10-06T12:42:34.818Z,101091.37
2023-10-06T12:45:38.019Z,101090.47
2023-10-06T12:48:40.755Z,101089.75
2023-10-06T12:51:43.294Z,101080.84
2023-10-06T12:54:47.677Z,101089.66
2023-10-06T12:57:50.843Z,101089.16
2023-10-06T13:00:53.411Z,101090.09
2023-10-06T13:03:56.120Z,101084.00
2023-10-06T13:07:00.361Z,101085.91
2023-10-06T13:10:07.575Z,101083.12
2023-10-06T13:13:10.109Z,101075.78
2023-10-06T13:16:12.671Z,101084.34
2023-10-06T13:19:15.270Z,101082.66
2023-10-06T13:22:17.933Z,101093.19
2023-10-06T13:25:20.500Z,101084.06
2023-10-06T13:28:23.109Z,101090.41
2023-10-06T13:31:25.574Z,101080.66
2023-10-06T13:34:28.409Z,101091.13
2023-10-06T13:37:31.652Z,101096.78
2023-10-06T13:40:35.647Z,101089.06
2023-10-06T13:43:38.475Z,101090.19
2023-10-06T13:46:41.789Z,101086.34
2023-10-06T13:49:44.898Z,101085.91
2023-10-06T13:52:53.312Z,101083.97
2023-10-06T13:55:59.894Z,101081.19
2023-10-06T13:59:05.243Z,101077.75
2023-10-06T14:02:08.138Z,101073.91
2023-10-06T14:05:13.162Z,101064.22
2023-10-06T14:08:15.938Z,101060.56
2023-10-06T14:11:18.527Z,101059.38
2023-10-06T14:14:44.462Z,101053.03
2023-10-06T14:17:48.502Z,101055.84
2023-10-06T14:20:51.341Z,101056.38
2023-10-06T14:23:56.226Z,101054.81
2023-10-06T14:27:00.142Z,101052.97
2023-10-06T14:30:05.248Z,101042.59
2023-10-06T14:33:16.029Z,101046.44
2023-10-06T14:36:21.400Z,101037.06
2023-10-06T14:39:42.618Z,101041.19
2023-10-06T14:43:03.619Z,101047.91
2023-10-06T14:46:08.622Z,101033.16
2023-10-06T14:49:17.161Z,101036.94
2023-10-06T14:52:20.866Z,101035.50
2023-10-06T14:55:23.411Z,101026.75
2023-10-06T14:58:26.253Z,101028.38
2023-10-06T15:01:31.969Z,101022.88
2023-10-06T15:04:35.835Z,101018.78
2023-10-06T15:07:40.117Z,101019.31
2023-10-06T15:10:43.104Z,101009.31
2023-10-06T15:13:48.346Z,101014.41
2023-10-06T15:16:51.013Z,101009.94
2023-10-06T15:19:54.369Z,101015.72
2023-10-06T15:22:57.108Z,101015.72
2023-10-06T15:26:03.897Z,101027.31
2023-10-06T15:29:09.013Z,101025.00
2023-10-06T15:32:13.283Z,101029.44
2023-10-06T15:35:16.173Z,101025.75
2023-10-06T15:38:21.309Z,101023.78
2023-10-06T15:41:24.680Z,101018.91
2023-10-06T15:44:28.828Z,101017.84
